sensor_id;sensor_type;location;lat;lon;timestamp;temperature;humidity
52439;DHT22;38359;53.150;6.504;2022-09-09T00:01:46;15.30;99.90
52439;DHT22;38359;53.150;6.504;2022-09-09T00:04:34;15.30;99.90
52439;DHT22;38359;53.150;6.504;2022-09-09T00:10:16;15.20;99.90
52439;DHT22;38359;53.150;6.504;2022-09-09T00:13:37;15.20;99.90
52439;DHT22;38359;53.150;6.504;2022-09-09T00:16:28;15.10;99.90
52439;DHT22;38359;53.150;6.504;2022-09-09T00:19:07;15.10;99.90
52439;DHT22;38359;53.150;6.504;2022-09-09T00:22:03;15.10;99.90
52439;DHT22;38359;53.150;6.504;2022-09-09T00:24:38;15.10;99.90
52439;DHT22;38359;53.150;6.504;2022-09-09T00:27:45;15.10;99.90
52439;DHT22;38359;53.150;6.504;2022-09-09T00:30:22;15.10;99.90
52439;DHT22;38359;53.150;6.504;2022-09-09T00:32:54;15.00;99.90
52439;DHT22;38359;53.150;6.504;2022-09-09T00:35:32;15.00;99.90
52439;DHT22;38359;53.150;6.504;2022-09-09T00:38:13;14.90;99.90
52439;DHT22;38359;53.150;6.504;2022-09-09T00:40:59;14.90;99.90
52439;DHT22;38359;53.150;6.504;2022-09-09T00:43:36;14.80;99.90
52439;DHT22;38359;53.150;6.504;2022-09-09T00:52:50;14.70;99.90
52439;DHT22;38359;53.150;6.504;2022-09-09T00:55:48;14.70;99.90
52439;DHT22;38359;53.150;6.504;2022-09-09T00:58:19;14.70;99.90
52439;DHT22;38359;53.150;6.504;2022-09-09T01:00:50;14.60;99.90
52439;DHT22;38359;53.150;6.504;2022-09-09T01:06:32;14.60;99.90
52439;DHT22;38359;53.150;6.504;2022-09-09T01:15:18;14.50;99.90
52439;DHT22;38359;53.150;6.504;2022-09-09T01:18:05;14.50;99.90
52439;DHT22;38359;53.150;6.504;2022-09-09T01:27:01;14.40;99.90
52439;DHT22;38359;53.150;6.504;2022-09-09T01:29:28;14.40;99.90
52439;DHT22;38359;53.150;6.504;2022-09-09T01:34:36;14.40;99.90
52439;DHT22;38359;53.150;6.504;2022-09-09T01:37:08;14.30;99.90
52439;DHT22;38359;53.150;6.504;2022-09-09T01:39:37;14.30;99.90
52439;DHT22;38359;53.150;6.504;2022-09-09T01:42:07;14.30;99.90
52439;DHT22;38359;53.150;6.504;2022-09-09T01:44:36;14.30;99.90
52439;DHT22;38359;53.150;6.504;2022-09-09T01:47:02;14.30;99.90
52439;DHT22;38359;53.150;6.504;2022-09-09T01:49:29;14.30;99.90
52439;DHT22;38359;53.150;6.504;2022-09-09T01:51:56;14.20;99.90
52439;DHT22;38359;53.150;6.504;2022-09-09T01:54:26;14.20;99.90
52439;DHT22;38359;53.150;6.504;2022-09-09T02:00:22;14.20;99.90
52439;DHT22;38359;53.150;6.504;2022-09-09T02:03:13;14.20;99.90
52439;DHT22;38359;53.150;6.504;2022-09-09T02:05:54;14.20;99.90
52439;DHT22;38359;53.150;6.504;2022-09-09T02:08:28;14.20;99.90
52439;DHT22;38359;53.150;6.504;2022-09-09T02:11:19;14.20;99.90
52439;DHT22;38359;53.150;6.504;2022-09-09T02:13:48;14.30;99.90
52439;DHT22;38359;53.150;6.504;2022-09-09T02:16:39;14.30;99.90
52439;DHT22;38359;53.150;6.504;2022-09-09T02:19:08;14.30;99.90
52439;DHT22;38359;53.150;6.504;2022-09-09T02:21:39;14.30;99.90
52439;DHT22;38359;53.150;6.504;2022-09-09T02:24:08;14.30;99.90
52439;DHT22;38359;53.150;6.504;2022-09-09T02:26:38;14.20;99.90
52439;DHT22;38359;53.150;6.504;2022-09-09T02:29:12;14.30;99.90
52439;DHT22;38359;53.150;6.504;2022-09-09T02:31:41;14.30;99.90
52439;DHT22;38359;53.150;6.504;2022-09-09T02:34:10;14.30;99.90
52439;DHT22;38359;53.150;6.504;2022-09-09T02:36:38;14.30;99.90
52439;DHT22;38359;53.150;6.504;2022-09-09T02:39:08;14.30;99.90
52439;DHT22;38359;53.150;6.504;2022-09-09T02:41:37;14.40;99.90
52439;DHT22;38359;53.150;6.504;2022-09-09T02:44:12;14.40;99.90
52439;DHT22;38359;53.150;6.504;2022-09-09T02:53:02;14.30;99.90
52439;DHT22;38359;53.150;6.504;2022-09-09T02:55:41;14.40;99.90
52439;DHT22;38359;53.150;6.504;2022-09-09T02:58:16;14.40;99.90
52439;DHT22;38359;53.150;6.504;2022-09-09T03:00:45;14.40;99.90
52439;DHT22;38359;53.150;6.504;2022-09-09T03:03:12;14.40;99.90
52439;DHT22;38359;53.150;6.504;2022-09-09T03:05:38;14.40;99.90
52439;DHT22;38359;53.150;6.504;2022-09-09T03:08:05;14.50;99.90
52439;DHT22;38359;53.150;6.504;2022-09-09T03:10:32;14.40;99.90
52439;DHT22;38359;53.150;6.504;2022-09-09T03:12:58;14.40;99.90
52439;DHT22;38359;53.150;6.504;2022-09-09T03:15:24;14.50;99.90
52439;DHT22;38359;53.150;6.504;2022-09-09T03:17:54;14.50;99.90
52439;DHT22;38359;53.150;6.504;2022-09-09T03:20:20;14.50;99.90
52439;DHT22;38359;53.150;6.504;2022-09-09T03:22:46;14.50;99.90
52439;DHT22;38359;53.150;6.504;2022-09-09T03:25:12;14.50;99.90
52439;DHT22;38359;53.150;6.504;2022-09-09T03:27:38;14.50;99.90
52439;DHT22;38359;53.150;6.504;2022-09-09T03:30:04;14.50;99.90
52439;DHT22;38359;53.150;6.504;2022-09-09T03:32:30;14.60;99.90
52439;DHT22;38359;53.150;6.504;2022-09-09T03:34:57;14.60;99.90
52439;DHT22;38359;53.150;6.504;2022-09-09T03:37:22;14.60;99.90
52439;DHT22;38359;53.150;6.504;2022-09-09T03:39:48;14.60;99.90
52439;DHT22;38359;53.150;6.504;2022-09-09T03:42:15;14.60;99.90
52439;DHT22;38359;53.150;6.504;2022-09-09T03:44:45;14.70;99.90
52439;DHT22;38359;53.150;6.504;2022-09-09T03:47:19;14.80;99.90
52439;DHT22;38359;53.150;6.504;2022-09-09T03:49:47;14.80;99.90
52439;DHT22;38359;53.150;6.504;2022-09-09T03:52:14;14.80;99.90
52439;DHT22;38359;53.150;6.504;2022-09-09T03:54:41;14.80;99.90
52439;DHT22;38359;53.150;6.504;2022-09-09T03:57:09;14.90;99.90
52439;DHT22;38359;53.150;6.504;2022-09-09T03:59:36;14.90;99.90
52439;DHT22;38359;53.150;6.504;2022-09-09T04:02:02;14.80;99.90
52439;DHT22;38359;53.150;6.504;2022-09-09T04:04:28;15.00;99.90
52439;DHT22;38359;53.150;6.504;2022-09-09T04:06:54;14.90;99.90
52439;DHT22;38359;53.150;6.504;2022-09-09T04:09:20;14.90;99.90
52439;DHT22;38359;53.150;6.504;2022-09-09T04:11:46;15.00;99.90
52439;DHT22;38359;53.150;6.504;2022-09-09T04:14:12;14.90;99.90
52439;DHT22;38359;53.150;6.504;2022-09-09T04:16:38;15.00;99.90
52439;DHT22;38359;53.150;6.504;2022-09-09T04:19:04;15.00;99.90
52439;DHT22;38359;53.150;6.504;2022-09-09T04:21:32;15.00;99.90
52439;DHT22;38359;53.150;6.504;2022-09-09T04:23:57;15.00;99.90
52439;DHT22;38359;53.150;6.504;2022-09-09T04:26:23;15.00;99.90
52439;DHT22;38359;53.150;6.504;2022-09-09T04:28:49;14.90;99.90
52439;DHT22;38359;53.150;6.504;2022-09-09T04:31:22;14.90;99.90
52439;DHT22;38359;53.150;6.504;2022-09-09T04:33:52;15.00;99.90
52439;DHT22;38359;53.150;6.504;2022-09-09T04:36:18;15.00;99.90
52439;DHT22;38359;53.150;6.504;2022-09-09T04:38:45;14.90;99.90
52439;DHT22;38359;53.150;6.504;2022-09-09T04:41:12;14.90;99.90
52439;DHT22;38359;53.150;6.504;2022-09-09T04:43:39;14.90;99.90
52439;DHT22;38359;53.150;6.504;2022-09-09T04:46:05;15.00;99.90
52439;DHT22;38359;53.150;6.504;2022-09-09T04:48:32;15.00;99.90
52439;DHT22;38359;53.150;6.504;2022-09-09T04:51:02;15.00;99.90
52439;DHT22;38359;53.150;6.504;2022-09-09T04:53:33;15.00;99.90
52439;DHT22;38359;53.150;6.504;2022-09-09T04:56:11;14.70;99.90
52439;DHT22;38359;53.150;6.504;2022-09-09T04:58:39;15.00;99.90
52439;DHT22;38359;53.150;6.504;2022-09-09T05:01:10;15.00;99.90
52439;DHT22;38359;53.150;6.504;2022-09-09T05:03:38;15.00;99.90
52439;DHT22;38359;53.150;6.504;2022-09-09T05:06:08;14.90;99.90
52439;DHT22;38359;53.150;6.504;2022-09-09T05:08:37;14.90;99.90
52439;DHT22;38359;53.150;6.504;2022-09-09T05:11:17;14.90;99.90
52439;DHT22;38359;53.150;6.504;2022-09-09T05:13:48;14.90;99.90
52439;DHT22;38359;53.150;6.504;2022-09-09T05:16:16;14.90;99.90
52439;DHT22;38359;53.150;6.504;2022-09-09T05:18:43;14.80;99.90
52439;DHT22;38359;53.150;6.504;2022-09-09T05:21:10;14.80;99.90
52439;DHT22;38359;53.150;6.504;2022-09-09T05:23:36;14.90;99.90
52439;DHT22;38359;53.150;6.504;2022-09-09T05:26:03;14.90;99.90
52439;DHT22;38359;53.150;6.504;2022-09-09T05:28:30;14.90;99.90
52439;DHT22;38359;53.150;6.504;2022-09-09T05:30:57;14.90;99.90
52439;DHT22;38359;53.150;6.504;2022-09-09T05:33:29;14.90;99.90
52439;DHT22;38359;53.150;6.504;2022-09-09T05:36:04;15.00;99.90
52439;DHT22;38359;53.150;6.504;2022-09-09T05:38:32;15.00;99.90
52439;DHT22;38359;53.150;6.504;2022-09-09T05:40:59;14.90;99.90
52439;DHT22;38359;53.150;6.504;2022-09-09T05:43:25;14.90;99.90
52439;DHT22;38359;53.150;6.504;2022-09-09T05:46:09;14.90;99.90
52439;DHT22;38359;53.150;6.504;2022-09-09T05:48:38;14.90;99.90
52439;DHT22;38359;53.150;6.504;2022-09-09T05:51:07;14.90;99.90
52439;DHT22;38359;53.150;6.504;2022-09-09T05:53:36;14.90;99.90
52439;DHT22;38359;53.150;6.504;2022-09-09T05:56:11;15.00;99.90
52439;DHT22;38359;53.150;6.504;2022-09-09T05:58:40;15.00;99.90
52439;DHT22;38359;53.150;6.504;2022-09-09T06:01:14;15.00;99.90
52439;DHT22;38359;53.150;6.504;2022-09-09T06:03:42;15.00;99.90
52439;DHT22;38359;53.150;6.504;2022-09-09T06:06:12;15.00;99.90
52439;DHT22;38359;53.150;6.504;2022-09-09T06:08:44;14.90;99.90
52439;DHT22;38359;53.150;6.504;2022-09-09T06:11:15;15.00;99.90
52439;DHT22;38359;53.150;6.504;2022-09-09T06:13:43;15.00;99.90
52439;DHT22;38359;53.150;6.504;2022-09-09T06:16:13;15.00;99.90
52439;DHT22;38359;53.150;6.504;2022-09-09T06:18:43;15.10;99.90
52439;DHT22;38359;53.150;6.504;2022-09-09T06:21:18;15.00;99.90
52439;DHT22;38359;53.150;6.504;2022-09-09T06:23:46;15.00;99.90
52439;DHT22;38359;53.150;6.504;2022-09-09T06:26:31;15.00;99.90
52439;DHT22;38359;53.150;6.504;2022-09-09T06:28:58;15.00;99.90
52439;DHT22;38359;53.150;6.504;2022-09-09T06:31:29;15.10;99.90
52439;DHT22;38359;53.150;6.504;2022-09-09T06:33:59;14.90;99.90
52439;DHT22;38359;53.150;6.504;2022-09-09T06:36:31;15.00;99.90
52439;DHT22;38359;53.150;6.504;2022-09-09T06:38:59;15.00;99.90
52439;DHT22;38359;53.150;6.504;2022-09-09T06:41:27;15.10;99.90
52439;DHT22;38359;53.150;6.504;2022-09-09T06:43:54;15.00;99.90
52439;DHT22;38359;53.150;6.504;2022-09-09T06:46:32;15.10;99.90
52439;DHT22;38359;53.150;6.504;2022-09-09T06:48:59;15.20;99.90
52439;DHT22;38359;53.150;6.504;2022-09-09T06:51:30;15.30;99.90
52439;DHT22;38359;53.150;6.504;2022-09-09T06:53:59;15.30;99.90
52439;DHT22;38359;53.150;6.504;2022-09-09T06:56:36;15.40;99.90
52439;DHT22;38359;53.150;6.504;2022-09-09T06:59:08;15.30;99.90
52439;DHT22;38359;53.150;6.504;2022-09-09T07:01:42;15.40;99.90
52439;DHT22;38359;53.150;6.504;2022-09-09T07:04:18;15.50;99.90
52439;DHT22;38359;53.150;6.504;2022-09-09T07:06:45;15.50;99.90
52439;DHT22;38359;53.150;6.504;2022-09-09T07:09:13;15.50;99.90
52439;DHT22;38359;53.150;6.504;2022-09-09T07:11:43;15.40;99.90
52439;DHT22;38359;53.150;6.504;2022-09-09T07:14:13;15.40;99.90
52439;DHT22;38359;53.150;6.504;2022-09-09T07:16:40;15.50;99.90
52439;DHT22;38359;53.150;6.504;2022-09-09T07:19:07;15.40;99.90
52439;DHT22;38359;53.150;6.504;2022-09-09T07:21:34;15.50;99.90
52439;DHT22;38359;53.150;6.504;2022-09-09T07:24:00;15.50;99.90
52439;DHT22;38359;53.150;6.504;2022-09-09T07:26:30;15.60;99.90
52439;DHT22;38359;53.150;6.504;2022-09-09T07:28:56;15.80;99.90
52439;DHT22;38359;53.150;6.504;2022-09-09T07:31:30;15.80;99.90
52439;DHT22;38359;53.150;6.504;2022-09-09T07:33:58;15.90;99.90
52439;DHT22;38359;53.150;6.504;2022-09-09T07:36:36;15.90;99.90
52439;DHT22;38359;53.150;6.504;2022-09-09T07:39:06;16.00;99.90
52439;DHT22;38359;53.150;6.504;2022-09-09T07:41:37;16.00;99.90
52439;DHT22;38359;53.150;6.504;2022-09-09T07:44:16;15.90;99.90
52439;DHT22;38359;53.150;6.504;2022-09-09T07:46:49;15.90;99.90
52439;DHT22;38359;53.150;6.504;2022-09-09T07:49:15;16.00;99.90
52439;DHT22;38359;53.150;6.504;2022-09-09T07:51:43;16.10;99.90
52439;DHT22;38359;53.150;6.504;2022-09-09T07:54:13;16.20;99.90
52439;DHT22;38359;53.150;6.504;2022-09-09T07:56:41;16.20;99.90
52439;DHT22;38359;53.150;6.504;2022-09-09T07:59:08;16.40;99.90
52439;DHT22;38359;53.150;6.504;2022-09-09T08:01:54;16.40;99.90
52439;DHT22;38359;53.150;6.504;2022-09-09T08:04:21;16.50;99.90
52439;DHT22;38359;53.150;6.504;2022-09-09T08:06:51;16.50;99.90
52439;DHT22;38359;53.150;6.504;2022-09-09T08:09:19;16.60;99.90
52439;DHT22;38359;53.150;6.504;2022-09-09T08:11:46;16.60;99.90
52439;DHT22;38359;53.150;6.504;2022-09-09T08:14:13;16.60;99.90
52439;DHT22;38359;53.150;6.504;2022-09-09T08:16:42;16.60;99.90
52439;DHT22;38359;53.150;6.504;2022-09-09T08:19:10;16.50;99.90
52439;DHT22;38359;53.150;6.504;2022-09-09T08:21:38;16.70;99.90
52439;DHT22;38359;53.150;6.504;2022-09-09T08:24:06;16.80;99.90
52439;DHT22;38359;53.150;6.504;2022-09-09T08:26:39;16.80;99.90
52439;DHT22;38359;53.150;6.504;2022-09-09T08:29:08;16.70;99.90
52439;DHT22;38359;53.150;6.504;2022-09-09T08:32:02;16.80;99.90
52439;DHT22;38359;53.150;6.504;2022-09-09T08:34:27;16.90;99.90
52439;DHT22;38359;53.150;6.504;2022-09-09T08:36:54;16.80;99.90
52439;DHT22;38359;53.150;6.504;2022-09-09T08:39:21;16.90;99.90
52439;DHT22;38359;53.150;6.504;2022-09-09T08:50:37;17.20;99.90
52439;DHT22;38359;53.150;6.504;2022-09-09T08:53:09;17.30;99.90
52439;DHT22;38359;53.150;6.504;2022-09-09T08:55:54;17.40;99.90
52439;DHT22;38359;53.150;6.504;2022-09-09T08:58:27;17.50;99.90
52439;DHT22;38359;53.150;6.504;2022-09-09T09:03:43;17.70;99.90
52439;DHT22;38359;53.150;6.504;2022-09-09T09:09:27;18.00;99.90
52439;DHT22;38359;53.150;6.504;2022-09-09T09:12:00;18.00;99.90
52439;DHT22;38359;53.150;6.504;2022-09-09T09:14:48;18.00;99.90
52439;DHT22;38359;53.150;6.504;2022-09-09T09:17:19;18.10;99.90
52439;DHT22;38359;53.150;6.504;2022-09-09T09:19:47;18.40;99.90
52439;DHT22;38359;53.150;6.504;2022-09-09T09:22:43;18.40;99.90
52439;DHT22;38359;53.150;6.504;2022-09-09T09:25:20;18.70;99.90
52439;DHT22;38359;53.150;6.504;2022-09-09T09:30:39;18.90;99.90
52439;DHT22;38359;53.150;6.504;2022-09-09T09:33:18;18.70;99.90
52439;DHT22;38359;53.150;6.504;2022-09-09T09:35:51;18.70;99.90
52439;DHT22;38359;53.150;6.504;2022-09-09T09:38:24;18.80;99.90
52439;DHT22;38359;53.150;6.504;2022-09-09T09:40:56;18.70;99.90
52439;DHT22;38359;53.150;6.504;2022-09-09T09:43:40;18.60;99.90
52439;DHT22;38359;53.150;6.504;2022-09-09T09:46:20;18.60;99.90
52439;DHT22;38359;53.150;6.504;2022-09-09T09:49:02;18.50;99.90
52439;DHT22;38359;53.150;6.504;2022-09-09T09:51:32;18.60;99.90
52439;DHT22;38359;53.150;6.504;2022-09-09T09:56:54;18.50;99.90
52439;DHT22;38359;53.150;6.504;2022-09-09T10:01:53;18.40;99.90
52439;DHT22;38359;53.150;6.504;2022-09-09T10:04:21;18.50;99.90
52439;DHT22;38359;53.150;6.504;2022-09-09T10:06:49;18.70;99.90
52439;DHT22;38359;53.150;6.504;2022-09-09T10:09:33;18.90;99.90
52439;DHT22;38359;53.150;6.504;2022-09-09T10:18:17;18.60;99.90
52439;DHT22;38359;53.150;6.504;2022-09-09T10:20:54;18.80;99.90
52439;DHT22;38359;53.150;6.504;2022-09-09T10:24:02;18.90;99.90
52439;DHT22;38359;53.150;6.504;2022-09-09T10:30:06;19.00;99.90
52439;DHT22;38359;53.150;6.504;2022-09-09T10:35:11;19.10;99.90
52439;DHT22;38359;53.150;6.504;2022-09-09T10:38:17;19.50;99.90
52439;DHT22;38359;53.150;6.504;2022-09-09T10:43:50;19.60;99.90
52439;DHT22;38359;53.150;6.504;2022-09-09T10:46:29;19.60;99.90
52439;DHT22;38359;53.150;6.504;2022-09-09T10:52:36;19.80;99.90
52439;DHT22;38359;53.150;6.504;2022-09-09T10:55:26;19.50;99.90
52439;DHT22;38359;53.150;6.504;2022-09-09T10:57:58;19.40;99.90
52439;DHT22;38359;53.150;6.504;2022-09-09T11:00:38;19.50;99.90
52439;DHT22;38359;53.150;6.504;2022-09-09T11:03:08;19.60;99.90
52439;DHT22;38359;53.150;6.504;2022-09-09T11:05:55;19.60;99.90
52439;DHT22;38359;53.150;6.504;2022-09-09T11:08:28;19.60;99.90
52439;DHT22;38359;53.150;6.504;2022-09-09T11:11:06;19.90;99.90
52439;DHT22;38359;53.150;6.504;2022-09-09T11:14:22;20.20;99.90
52439;DHT22;38359;53.150;6.504;2022-09-09T11:16:57;20.50;99.90
52439;DHT22;38359;53.150;6.504;2022-09-09T11:19:39;20.50;99.90
52439;DHT22;38359;53.150;6.504;2022-09-09T11:22:34;20.80;99.90
52439;DHT22;38359;53.150;6.504;2022-09-09T11:31:09;20.30;99.90
52439;DHT22;38359;53.150;6.504;2022-09-09T11:34:08;20.30;99.90
52439;DHT22;38359;53.150;6.504;2022-09-09T11:42:35;20.10;99.90
52439;DHT22;38359;53.150;6.504;2022-09-09T11:45:25;20.00;99.90
52439;DHT22;38359;53.150;6.504;2022-09-09T11:47:56;19.90;99.90
52439;DHT22;38359;53.150;6.504;2022-09-09T11:50:29;20.00;99.90
52439;DHT22;38359;53.150;6.504;2022-09-09T11:53:06;20.30;99.90
52439;DHT22;38359;53.150;6.504;2022-09-09T11:55:44;20.80;99.90
52439;DHT22;38359;53.150;6.504;2022-09-09T12:00:48;20.60;99.90
52439;DHT22;38359;53.150;6.504;2022-09-09T12:06:19;20.50;99.90
52439;DHT22;38359;53.150;6.504;2022-09-09T12:08:55;20.50;99.90
52439;DHT22;38359;53.150;6.504;2022-09-09T12:11:27;20.50;99.90
52439;DHT22;38359;53.150;6.504;2022-09-09T12:13:55;20.70;99.90
52439;DHT22;38359;53.150;6.504;2022-09-09T12:16:34;20.60;99.90
52439;DHT22;38359;53.150;6.504;2022-09-09T12:19:05;20.60;99.90
52439;DHT22;38359;53.150;6.504;2022-09-09T12:22:09;20.50;99.90
52439;DHT22;38359;53.150;6.504;2022-09-09T12:27:43;20.50;99.90
52439;DHT22;38359;53.150;6.504;2022-09-09T12:30:15;20.40;99.90
52439;DHT22;38359;53.150;6.504;2022-09-09T12:32:41;20.70;99.90
52439;DHT22;38359;53.150;6.504;2022-09-09T12:35:21;21.20;99.90
52439;DHT22;38359;53.150;6.504;2022-09-09T12:37:53;21.30;99.90
52439;DHT22;38359;53.150;6.504;2022-09-09T12:40:28;20.90;99.90
52439;DHT22;38359;53.150;6.504;2022-09-09T12:43:00;20.70;99.90
52439;DHT22;38359;53.150;6.504;2022-09-09T12:45:48;20.90;99.90
52439;DHT22;38359;53.150;6.504;2022-09-09T12:48:18;21.10;99.90
52439;DHT22;38359;53.150;6.504;2022-09-09T12:50:49;21.50;99.90
52439;DHT22;38359;53.150;6.504;2022-09-09T12:56:22;21.40;99.90
52439;DHT22;38359;53.150;6.504;2022-09-09T12:58:52;21.60;99.90
52439;DHT22;38359;53.150;6.504;2022-09-09T13:01:30;22.00;99.90
52439;DHT22;38359;53.150;6.504;2022-09-09T13:03:59;21.60;99.90
52439;DHT22;38359;53.150;6.504;2022-09-09T13:06:27;21.10;99.90
52439;DHT22;38359;53.150;6.504;2022-09-09T13:08:58;21.60;99.90
52439;DHT22;38359;53.150;6.504;2022-09-09T13:11:36;21.60;99.90
52439;DHT22;38359;53.150;6.504;2022-09-09T13:14:05;22.00;99.90
52439;DHT22;38359;53.150;6.504;2022-09-09T13:16:34;21.40;99.90
52439;DHT22;38359;53.150;6.504;2022-09-09T13:19:06;21.70;99.90
52439;DHT22;38359;53.150;6.504;2022-09-09T13:21:40;21.90;99.90
52439;DHT22;38359;53.150;6.504;2022-09-09T13:27:04;21.60;99.90
52439;DHT22;38359;53.150;6.504;2022-09-09T13:29:52;21.60;99.90
52439;DHT22;38359;53.150;6.504;2022-09-09T13:32:24;21.60;99.90
52439;DHT22;38359;53.150;6.504;2022-09-09T13:35:01;21.50;99.90
52439;DHT22;38359;53.150;6.504;2022-09-09T13:37:38;21.60;99.90
52439;DHT22;38359;53.150;6.504;2022-09-09T13:40:14;21.40;99.90
52439;DHT22;38359;53.150;6.504;2022-09-09T13:42:44;21.30;99.90
52439;DHT22;38359;53.150;6.504;2022-09-09T13:45:21;21.30;99.90
52439;DHT22;38359;53.150;6.504;2022-09-09T13:47:49;21.40;99.90
52439;DHT22;38359;53.150;6.504;2022-09-09T13:50:22;21.50;99.90
52439;DHT22;38359;53.150;6.504;2022-09-09T13:52:53;21.50;99.90
52439;DHT22;38359;53.150;6.504;2022-09-09T13:55:21;21.40;99.90
52439;DHT22;38359;53.150;6.504;2022-09-09T13:58:00;21.70;99.90
52439;DHT22;38359;53.150;6.504;2022-09-09T14:00:29;22.00;99.90
52439;DHT22;38359;53.150;6.504;2022-09-09T14:02:56;23.20;99.90
52439;DHT22;38359;53.150;6.504;2022-09-09T14:05:22;23.20;99.90
52439;DHT22;38359;53.150;6.504;2022-09-09T14:07:49;23.20;99.90
52439;DHT22;38359;53.150;6.504;2022-09-09T14:10:15;22.00;99.90
52439;DHT22;38359;53.150;6.504;2022-09-09T14:12:41;21.60;99.90
52439;DHT22;38359;53.150;6.504;2022-09-09T14:15:10;21.70;99.90
52439;DHT22;38359;53.150;6.504;2022-09-09T14:17:36;22.10;99.90
52439;DHT22;38359;53.150;6.504;2022-09-09T14:20:06;21.80;99.90
52439;DHT22;38359;53.150;6.504;2022-09-09T14:22:35;21.60;99.90
52439;DHT22;38359;53.150;6.504;2022-09-09T14:25:02;21.20;99.90
52439;DHT22;38359;53.150;6.504;2022-09-09T14:27:28;21.00;99.90
52439;DHT22;38359;53.150;6.504;2022-09-09T14:29:55;20.40;99.90
52439;DHT22;38359;53.150;6.504;2022-09-09T14:32:21;20.20;99.90
52439;DHT22;38359;53.150;6.504;2022-09-09T14:34:47;20.20;99.90
52439;DHT22;38359;53.150;6.504;2022-09-09T14:37:16;19.80;99.90
52439;DHT22;38359;53.150;6.504;2022-09-09T14:39:42;19.50;99.90
52439;DHT22;38359;53.150;6.504;2022-09-09T14:42:13;19.20;99.90
52439;DHT22;38359;53.150;6.504;2022-09-09T14:44:39;19.30;99.90
52439;DHT22;38359;53.150;6.504;2022-09-09T14:47:06;19.80;99.90
52439;DHT22;38359;53.150;6.504;2022-09-09T14:49:34;20.20;99.90
52439;DHT22;38359;53.150;6.504;2022-09-09T14:52:00;20.50;99.90
52439;DHT22;38359;53.150;6.504;2022-09-09T14:54:26;20.70;99.90
52439;DHT22;38359;53.150;6.504;2022-09-09T14:56:52;21.10;99.90
52439;DHT22;38359;53.150;6.504;2022-09-09T14:59:17;21.10;99.90
52439;DHT22;38359;53.150;6.504;2022-09-09T15:01:43;21.00;99.90
52439;DHT22;38359;53.150;6.504;2022-09-09T15:04:12;22.30;99.90
52439;DHT22;38359;53.150;6.504;2022-09-09T15:06:40;23.00;99.90
52439;DHT22;38359;53.150;6.504;2022-09-09T15:09:08;24.20;99.90
52439;DHT22;38359;53.150;6.504;2022-09-09T15:11:36;23.60;99.90
52439;DHT22;38359;53.150;6.504;2022-09-09T15:14:07;22.90;99.90
52439;DHT22;38359;53.150;6.504;2022-09-09T15:16:33;23.10;99.90
52439;DHT22;38359;53.150;6.504;2022-09-09T15:19:01;24.30;99.90
52439;DHT22;38359;53.150;6.504;2022-09-09T15:21:30;24.10;99.90
52439;DHT22;38359;53.150;6.504;2022-09-09T15:23:59;23.50;99.90
52439;DHT22;38359;53.150;6.504;2022-09-09T15:26:25;22.90;99.90
52439;DHT22;38359;53.150;6.504;2022-09-09T15:28:52;23.30;99.90
52439;DHT22;38359;53.150;6.504;2022-09-09T15:31:24;24.10;99.90
52439;DHT22;38359;53.150;6.504;2022-09-09T15:33:56;24.20;99.90
52439;DHT22;38359;53.150;6.504;2022-09-09T15:36:38;24.30;99.90
52439;DHT22;38359;53.150;6.504;2022-09-09T15:39:08;23.90;99.90
52439;DHT22;38359;53.150;6.504;2022-09-09T15:41:38;22.60;99.90
52439;DHT22;38359;53.150;6.504;2022-09-09T15:44:05;21.70;99.90
52439;DHT22;38359;53.150;6.504;2022-09-09T15:46:32;20.90;99.90
52439;DHT22;38359;53.150;6.504;2022-09-09T15:49:14;20.40;99.90
52439;DHT22;38359;53.150;6.504;2022-09-09T15:56:55;20.50;99.90
52439;DHT22;38359;53.150;6.504;2022-09-09T15:59:26;20.60;99.90
52439;DHT22;38359;53.150;6.504;2022-09-09T16:01:53;20.80;99.90
52439;DHT22;38359;53.150;6.504;2022-09-09T16:04:21;20.90;99.90
52439;DHT22;38359;53.150;6.504;2022-09-09T16:06:52;20.60;99.90
52439;DHT22;38359;53.150;6.504;2022-09-09T16:09:19;20.40;99.90
52439;DHT22;38359;53.150;6.504;2022-09-09T16:11:45;20.70;99.90
52439;DHT22;38359;53.150;6.504;2022-09-09T16:14:14;20.60;99.90
52439;DHT22;38359;53.150;6.504;2022-09-09T16:16:43;20.80;99.90
52439;DHT22;38359;53.150;6.504;2022-09-09T16:19:11;20.80;99.90
52439;DHT22;38359;53.150;6.504;2022-09-09T16:21:43;20.40;99.90
52439;DHT22;38359;53.150;6.504;2022-09-09T16:24:11;20.00;99.90
52439;DHT22;38359;53.150;6.504;2022-09-09T16:26:45;19.90;99.90
52439;DHT22;38359;53.150;6.504;2022-09-09T16:29:13;20.10;99.90
52439;DHT22;38359;53.150;6.504;2022-09-09T16:31:40;20.20;99.90
52439;DHT22;38359;53.150;6.504;2022-09-09T16:34:07;20.30;99.90
52439;DHT22;38359;53.150;6.504;2022-09-09T16:36:36;20.20;99.90
52439;DHT22;38359;53.150;6.504;2022-09-09T16:39:05;20.20;99.90
52439;DHT22;38359;53.150;6.504;2022-09-09T16:41:33;20.20;99.90
52439;DHT22;38359;53.150;6.504;2022-09-09T16:44:01;20.20;99.90
52439;DHT22;38359;53.150;6.504;2022-09-09T16:46:29;20.30;99.90
52439;DHT22;38359;53.150;6.504;2022-09-09T16:48:57;20.10;99.90
52439;DHT22;38359;53.150;6.504;2022-09-09T16:51:35;20.00;99.90
52439;DHT22;38359;53.150;6.504;2022-09-09T16:54:05;19.90;99.90
52439;DHT22;38359;53.150;6.504;2022-09-09T16:56:34;19.80;99.90
52439;DHT22;38359;53.150;6.504;2022-09-09T16:59:05;19.80;99.90
52439;DHT22;38359;53.150;6.504;2022-09-09T17:01:35;19.80;99.90
52439;DHT22;38359;53.150;6.504;2022-09-09T17:04:05;19.80;99.90
52439;DHT22;38359;53.150;6.504;2022-09-09T17:06:36;19.60;99.90
52439;DHT22;38359;53.150;6.504;2022-09-09T17:09:06;19.50;99.90
52439;DHT22;38359;53.150;6.504;2022-09-09T17:11:37;19.60;99.90
52439;DHT22;38359;53.150;6.504;2022-09-09T17:14:05;19.50;99.90
52439;DHT22;38359;53.150;6.504;2022-09-09T17:16:32;19.50;99.90
52439;DHT22;38359;53.150;6.504;2022-09-09T17:19:03;19.50;99.90
52439;DHT22;38359;53.150;6.504;2022-09-09T17:21:30;19.60;99.90
52439;DHT22;38359;53.150;6.504;2022-09-09T17:23:59;19.50;99.90
52439;DHT22;38359;53.150;6.504;2022-09-09T17:26:28;19.50;99.90
52439;DHT22;38359;53.150;6.504;2022-09-09T17:28:56;19.50;99.90
52439;DHT22;38359;53.150;6.504;2022-09-09T17:31:24;19.50;99.90
52439;DHT22;38359;53.150;6.504;2022-09-09T17:33:52;19.60;99.90
52439;DHT22;38359;53.150;6.504;2022-09-09T17:36:23;19.50;99.90
52439;DHT22;38359;53.150;6.504;2022-09-09T17:38:52;19.50;99.90
52439;DHT22;38359;53.150;6.504;2022-09-09T17:41:30;19.50;99.90
52439;DHT22;38359;53.150;6.504;2022-09-09T17:43:57;19.40;99.90
52439;DHT22;38359;53.150;6.504;2022-09-09T17:46:28;19.40;99.90
52439;DHT22;38359;53.150;6.504;2022-09-09T17:48:59;19.40;99.90
52439;DHT22;38359;53.150;6.504;2022-09-09T17:51:28;19.30;99.90